Time;durP1;ratioP1;P1;durP2;ratioP2;P2;SDS_P1;SDS_P2;PMS_P1;PMS_P2;Temp;Humidity;BMP_temperature;BMP_pressure;BME280_temperature;BME280_humidity;BME280_pressure;Samples;Min_cycle;Max_cycle;Signal;HPM_P1;HPM_P2
2023/06/20 00:02:17;;;;;;;22.60;16.40;;;;;;;17.82;72.94;100664.73;104285;1284;98002;-82
2023/06/20 00:05:05;;;;;;;17.60;15.10;;;;;;;17.80;73.28;100669.34;104327;1285;102369;-81
2023/06/20 00:07:54;;;;;;;23.70;17.70;;;;;;;17.78;72.98;100669.16;104315;1285;100361;-81
2023/06/20 00:10:39;;;;;;;22.10;17.80;;;;;;;17.76;73.34;100669.27;104454;1284;106733;-83
2023/06/20 00:13:25;;;;;;;22.10;17.80;;;;;;;17.69;73.31;100670.91;104731;1293;97912;-80
2023/06/20 00:16:10;;;;;;;19.50;17.20;;;;;;;17.63;73.54;100671.08;104643;1285;98606;-82
2023/06/20 00:18:56;;;;;;;21.00;17.20;;;;;;;17.60;73.58;100670.55;104791;1284;102090;-81
2023/06/20 00:21:42;;;;;;;20.70;15.50;;;;;;;17.59;74.10;100670.85;104830;1286;100466;-81
2023/06/20 00:24:31;;;;;;;18.50;15.00;;;;;;;17.57;74.16;100668.19;104669;1293;97934;-80
2023/06/20 00:27:16;;;;;;;16.50;14.80;;;;;;;17.52;73.87;100665.71;104859;1283;98027;-81
2023/06/20 00:30:03;;;;;;;19.70;16.90;;;;;;;17.46;74.07;100667.98;104796;1280;97938;-80
2023/06/20 00:32:49;;;;;;;22.40;17.00;;;;;;;17.44;74.40;100667.17;104648;1286;101659;-81
2023/06/20 00:35:37;;;;;;;21.80;17.30;;;;;;;17.43;74.78;100667.56;104822;1283;99108;-81
2023/06/20 00:38:22;;;;;;;21.60;17.30;;;;;;;17.40;74.58;100672.89;104829;1286;97919;-81
2023/06/20 00:41:08;;;;;;;19.90;17.10;;;;;;;17.36;74.95;100677.07;104852;1280;98903;-81
2023/06/20 00:43:53;;;;;;;20.10;16.10;;;;;;;17.31;75.00;100673.92;104981;1279;96242;-81
2023/06/20 00:46:40;;;;;;;21.50;16.00;;;;;;;17.24;75.01;100671.48;104935;1285;101424;-80
2023/06/20 00:49:25;;;;;;;20.10;15.40;;;;;;;17.20;74.92;100670.92;105429;1283;99131;-81
2023/06/20 00:52:13;;;;;;;19.60;16.30;;;;;;;17.16;75.22;100673.69;105210;1283;98072;-80
2023/06/20 00:54:59;;;;;;;20.20;16.20;;;;;;;17.16;75.71;100678.60;104861;1283;96720;-80
2023/06/20 00:57:48;;;;;;;17.60;15.80;;;;;;;17.13;75.67;100679.66;104984;1282;98456;-80
2023/06/20 01:00:35;;;;;;;21.70;16.30;;;;;;;17.09;75.53;100679.47;104900;1282;102650;-80
2023/06/20 01:03:21;;;;;;;17.80;16.00;;;;;;;17.02;75.61;100681.34;104863;1286;100384;-80
2023/06/20 01:06:26;;;;;;;20.00;15.10;;;;;;;17.00;75.89;100683.57;104797;1283;97909;-80
2023/06/20 01:09:31;;;;;;;19.60;16.50;;;;;;;17.01;75.96;100681.69;104989;1280;97864;-81
2023/06/20 01:12:38;;;;;;;17.10;15.30;;;;;;;17.03;75.91;100681.38;104905;1280;98716;-81
2023/06/20 01:15:35;;;;;;;18.00;15.10;;;;;;;17.02;76.01;100680.84;105044;1280;102135;-81
2023/06/20 01:18:43;;;;;;;19.20;15.30;;;;;;;16.99;76.10;100678.05;104857;1280;99162;-81
2023/06/20 01:21:39;;;;;;;19.00;15.50;;;;;;;16.95;76.33;100679.30;104935;1283;98070;-81
2023/06/20 01:24:33;;;;;;;17.70;15.80;;;;;;;16.90;76.36;100676.73;104782;1281;98011;-80
2023/06/20 01:27:28;;;;;;;19.20;16.20;;;;;;;16.86;76.51;100675.90;104645;1280;97918;-81
2023/06/20 01:30:22;;;;;;;21.10;17.50;;;;;;;16.83;76.75;100672.73;105029;1286;102139;-80
2023/06/20 01:33:10;;;;;;;20.10;17.40;;;;;;;16.81;76.82;100680.42;104824;1279;100476;-81
2023/06/20 01:36:00;;;;;;;21.00;17.70;;;;;;;16.79;76.48;100682.61;104873;1282;98023;-81
2023/06/20 01:38:50;;;;;;;20.10;17.90;;;;;;;16.75;76.78;100677.74;104978;1280;98001;-81
2023/06/20 01:41:39;;;;;;;25.40;17.30;;;;;;;16.72;76.87;100676.02;106533;1279;95462;-81
2023/06/20 01:44:28;;;;;;;20.60;16.80;;;;;;;16.70;76.78;100674.17;105124;1280;101399;-81
2023/06/20 01:47:16;;;;;;;30.00;19.60;;;;;;;16.70;76.99;100671.89;104676;1286;100091;-80
2023/06/20 01:50:05;;;;;;;22.30;17.70;;;;;;;16.69;76.87;100668.02;104961;1280;97991;-81
2023/06/20 01:52:53;;;;;;;20.30;16.80;;;;;;;16.67;77.13;100666.98;104863;1280;98071;-81
2023/06/20 01:55:41;;;;;;;18.80;16.00;;;;;;;16.67;77.40;100672.17;104913;1280;97899;-80
2023/06/20 01:58:26;;;;;;;18.20;16.20;;;;;;;16.67;77.32;100672.00;104899;1283;102779;-81
2023/06/20 02:01:15;;;;;;;18.00;15.80;;;;;;;16.65;77.50;100670.94;105060;1279;100560;-81
2023/06/20 02:04:01;;;;;;;19.00;16.70;;;;;;;16.61;77.35;100671.58;104948;1279;97867;-81
2023/06/20 02:06:49;;;;;;;20.20;15.60;;;;;;;16.55;77.00;100674.63;104960;1280;98080;-81
2023/06/20 02:09:36;;;;;;;18.30;15.20;;;;;;;16.50;77.08;100676.77;104774;1284;97901;-81
2023/06/20 02:12:26;;;;;;;17.60;15.80;;;;;;;16.44;77.34;100679.13;105027;1283;101367;-81
2023/06/20 02:15:12;;;;;;;20.20;15.10;;;;;;;16.42;77.37;100681.02;104827;1280;100935;-80
2023/06/20 02:18:02;;;;;;;16.80;14.70;;;;;;;16.43;77.81;100679.80;104949;1280;97884;-80
2023/06/20 02:20:52;;;;;;;20.20;14.80;;;;;;;16.44;77.98;100678.58;105083;1280;98050;-80
2023/06/20 02:23:39;;;;;;;15.40;13.70;;;;;;;16.40;77.63;100680.81;104692;1285;98033;-80
2023/06/20 02:26:34;;;;;;;16.00;13.60;;;;;;;16.35;77.72;100682.99;104942;1283;102685;-80
2023/06/20 02:29:22;;;;;;;16.20;13.80;;;;;;;16.32;77.85;100681.27;104641;1280;100880;-79
2023/06/20 02:32:13;;;;;;;18.00;13.50;;;;;;;16.35;77.96;100681.04;104600;1279;98444;-82
2023/06/20 02:34:59;;;;;;;15.60;13.80;;;;;;;16.39;78.45;100678.36;105141;1283;98104;-82
2023/06/20 02:37:46;;;;;;;17.30;15.20;;;;;;;16.41;78.76;100676.48;104866;1283;98626;-81
2023/06/20 02:40:31;;;;;;;19.70;16.60;;;;;;;16.41;78.84;100682.64;105036;1285;102051;-80
2023/06/20 02:43:18;;;;;;;17.10;14.40;;;;;;;16.42;79.06;100687.38;104877;1280;100128;-80
2023/06/20 02:46:08;;;;;;;17.90;14.80;;;;;;;16.43;79.20;100684.66;104989;1283;99126;-80
2023/06/20 02:49:10;;;;;;;15.60;14.00;;;;;;;16.45;79.53;100685.25;104712;1280;97945;-80
2023/06/20 02:52:04;;;;;;;;;;;;;;;16.46;79.39;100685.84;104982;1280;97925;-81
2023/06/20 02:55:15;;;;;;;15.20;13.10;;;;;;;16.44;79.67;100682.12;104982;1279;101384;-80
2023/06/20 02:58:10;;;;;;;14.90;13.40;;;;;;;16.44;79.93;100677.61;104860;1283;99213;-79
2023/06/20 03:00:59;;;;;;;19.90;14.50;;;;;;;16.45;80.11;100673.16;103967;1285;99015;-79
2023/06/20 03:03:45;;;;;;;16.00;14.30;;;;;;;16.46;80.02;100675.18;104236;1285;97944;-82
2023/06/20 03:06:33;;;;;;;15.30;13.40;;;;;;;16.48;80.29;100672.84;104797;1282;99286;-81
2023/06/20 03:09:22;;;;;;;14.80;13.30;;;;;;;16.49;80.55;100668.99;104965;1279;102641;-80
2023/06/20 03:12:08;;;;;;;15.10;13.40;;;;;;;16.52;80.91;100671.45;104938;1283;100431;-80
2023/06/20 03:14:53;;;;;;;15.00;13.40;;;;;;;16.56;80.95;100672.06;104659;1284;97975;-80
2023/06/20 03:17:38;;;;;;;15.20;13.40;;;;;;;16.60;81.12;100671.55;104852;1280;96385;-80
2023/06/20 03:20:24;;;;;;;16.40;14.00;;;;;;;16.62;81.05;100670.48;104943;1279;97940;-81
2023/06/20 03:23:09;;;;;;;14.10;12.70;;;;;;;16.63;81.20;100674.08;104777;1283;102681;-81
2023/06/20 03:25:55;;;;;;;16.20;13.50;;;;;;;16.64;81.08;100671.23;104803;1283;108075;-80
2023/06/20 03:28:41;;;;;;;17.70;14.00;;;;;;;16.67;81.27;100671.70;104812;1280;98596;-81
2023/06/20 03:31:27;;;;;;;16.00;14.00;;;;;;;16.71;81.19;100676.75;104670;1279;98274;-80
2023/06/20 03:34:13;;;;;;;18.50;14.80;;;;;;;16.74;81.39;100680.96;104607;1285;98639;-79
2023/06/20 03:36:58;;;;;;;17.80;14.10;;;;;;;16.79;81.50;100687.23;104903;1279;101443;-80
2023/06/20 03:39:44;;;;;;;16.10;14.50;;;;;;;16.84;81.67;100686.79;104923;1279;99377;-81
2023/06/20 03:42:30;;;;;;;15.80;13.90;;;;;;;16.91;82.16;100687.05;104881;1280;98540;-80
2023/06/20 03:45:15;;;;;;;17.30;15.00;;;;;;;17.00;82.14;100691.89;104783;1280;99744;-80
2023/06/20 03:48:01;;;;;;;18.30;14.50;;;;;;;17.09;82.26;100691.00;104899;1279;96500;-81
2023/06/20 03:50:47;;;;;;;15.60;14.00;;;;;;;17.15;82.42;100691.89;105148;1285;101465;-81
2023/06/20 03:53:33;;;;;;;17.00;14.90;;;;;;;17.21;82.56;100693.35;105027;1280;99130;-81
2023/06/20 03:56:19;;;;;;;17.10;15.20;;;;;;;17.25;82.92;100690.55;104913;1283;98494;-81
2023/06/20 03:59:05;;;;;;;18.00;15.40;;;;;;;17.31;83.22;100688.94;104992;1279;97781;-81
2023/06/20 04:01:50;;;;;;;17.20;15.40;;;;;;;17.37;83.77;100695.52;104928;1279;97949;-81
2023/06/20 04:04:37;;;;;;;16.90;14.80;;;;;;;17.43;83.83;100697.63;104811;1280;101496;-81
2023/06/20 04:07:22;;;;;;;18.80;14.80;;;;;;;17.50;84.27;100699.32;104893;1280;99139;-81
2023/06/20 04:10:12;;;;;;;21.80;15.70;;;;;;;17.57;84.64;100698.65;104829;1281;97844;-81
2023/06/20 04:19:28;;;;;;;21.70;18.20;;;;;;;17.74;85.05;100703.81;103116;1283;103247;-81
2023/06/20 04:22:14;;;;;;;21.30;18.00;;;;;;;17.80;85.27;100707.16;104696;1280;99115;-81
2023/06/20 04:25:00;;;;;;;20.20;17.90;;;;;;;17.85;85.25;100708.58;104933;1280;99403;-82
2023/06/20 04:27:55;;;;;;;20.20;18.00;;;;;;;17.89;85.66;100711.63;105005;1279;96135;-82
2023/06/20 04:30:41;;;;;;;19.90;17.70;;;;;;;17.95;85.77;100714.17;104940;1282;97988;-82
2023/06/20 04:33:27;;;;;;;21.50;18.50;;;;;;;18.00;86.06;100719.68;104847;1283;101376;-80
2023/06/20 04:36:15;;;;;;;22.10;19.80;;;;;;;18.02;85.73;100720.15;104947;1280;108788;-81
2023/06/20 04:39:03;;;;;;;21.40;18.30;;;;;;;18.04;85.78;100717.33;105022;1280;108974;-81
2023/06/20 04:41:49;;;;;;;20.80;18.70;;;;;;;18.07;85.85;100720.16;104847;1286;96537;-81
2023/06/20 04:44:35;;;;;;;22.90;18.40;;;;;;;18.12;86.09;100719.42;105098;1280;97433;-81
2023/06/20 04:47:21;;;;;;;20.70;18.30;;;;;;;18.16;86.22;100723.34;105078;1280;102061;-80
2023/06/20 04:50:06;;;;;;;21.40;18.90;;;;;;;18.22;86.44;100724.41;105132;1283;99134;-80
2023/06/20 04:52:54;;;;;;;22.30;19.90;;;;;;;18.29;86.55;100728.22;104936;1280;97837;-80
2023/06/20 04:55:39;;;;;;;23.60;19.90;;;;;;;18.36;86.27;100728.20;104957;1280;97973;-81
2023/06/20 04:58:28;;;;;;;21.50;19.00;;;;;;;18.44;86.24;100730.29;104520;1289;98066;-81
2023/06/20 05:01:14;;;;;;;22.80;20.50;;;;;;;18.51;86.32;100731.27;105004;1280;101638;-80
2023/06/20 05:04:03;;;;;;;22.90;20.40;;;;;;;18.58;86.47;100733.11;104794;1285;100617;-80
2023/06/20 05:06:49;;;;;;;25.70;20.20;;;;;;;18.64;86.20;100734.66;104879;1281;98030;-81
2023/06/20 05:09:34;;;;;;;23.60;19.50;;;;;;;18.70;86.31;100731.52;105003;1279;98004;-81
2023/06/20 05:12:19;;;;;;;21.80;19.50;;;;;;;18.78;86.55;100730.66;104692;1283;98071;-81
2023/06/20 05:15:05;;;;;;;20.80;18.60;;;;;;;18.87;86.36;100723.59;104675;1280;102141;-81
2023/06/20 05:17:51;;;;;;;21.10;18.90;;;;;;;18.99;86.48;100716.14;105041;1283;99117;-81
2023/06/20 05:20:37;;;;;;;22.10;19.90;;;;;;;19.12;86.38;100713.00;104960;1283;98400;-80
2023/06/20 05:23:25;;;;;;;22.90;19.80;;;;;;;19.23;86.57;100716.45;104880;1282;98026;-81
2023/06/20 05:26:12;;;;;;;22.90;18.80;;;;;;;19.37;86.43;100720.02;104865;1282;98496;-81
2023/06/20 05:28:57;;;;;;;24.40;19.10;;;;;;;19.55;86.01;100718.54;104880;1282;101392;-81
2023/06/20 05:31:43;;;;;;;20.30;17.80;;;;;;;19.71;85.47;100720.19;104883;1281;100056;-80
2023/06/20 05:34:28;;;;;;;20.40;18.20;;;;;;;19.86;85.15;100718.58;104800;1285;98984;-81
2023/06/20 05:37:14;;;;;;;19.60;17.10;;;;;;;20.03;84.66;100717.41;104875;1280;98471;-81
2023/06/20 05:39:59;;;;;;;23.00;16.90;;;;;;;20.22;84.14;100721.61;104540;1285;97972;-81
2023/06/20 05:42:45;;;;;;;22.10;17.70;;;;;;;20.43;83.62;100722.46;104748;1280;101447;-81
2023/06/20 05:45:33;;;;;;;19.30;15.70;;;;;;;20.60;83.65;100719.57;104802;1283;99127;-81
2023/06/20 05:48:18;;;;;;;17.10;15.50;;;;;;;20.78;82.35;100720.83;104776;1282;98002;-81
2023/06/20 05:51:03;;;;;;;17.00;15.30;;;;;;;20.98;81.64;100720.49;104770;1280;97927;-80
2023/06/20 05:53:49;;;;;;;15.40;13.90;;;;;;;21.15;80.69;100720.73;104685;1280;99697;-82
2023/06/20 05:56:35;;;;;;;17.10;14.80;;;;;;;21.25;79.64;100715.64;104462;1283;101404;-83
2023/06/20 05:59:20;;;;;;;17.80;14.80;;;;;;;21.34;79.12;100716.04;104361;1280;99102;-83
2023/06/20 06:02:06;;;;;;;18.20;13.60;;;;;;;21.48;78.77;100722.25;104471;1283;97934;-82
2023/06/20 06:04:51;;;;;;;18.00;14.10;;;;;;;21.58;78.71;100723.13;104448;1282;99321;-81
2023/06/20 06:07:38;;;;;;;18.10;14.00;;;;;;;21.68;78.81;100720.23;104542;1286;98541;-84
2023/06/20 06:10:25;;;;;;;16.40;14.30;;;;;;;21.83;77.74;100720.95;104514;1283;102210;-80
2023/06/20 06:13:10;;;;;;;15.40;14.00;;;;;;;21.96;76.82;100720.92;104414;1280;99354;-82
2023/06/20 06:15:56;;;;;;;14.00;12.20;;;;;;;22.08;76.66;100718.87;104333;1286;97953;-82
2023/06/20 06:18:41;;;;;;;14.90;13.50;;;;;;;22.21;76.88;100722.31;104374;1283;98037;-80
2023/06/20 06:21:27;;;;;;;16.60;13.80;;;;;;;22.35;77.08;100721.88;104360;1278;98109;-81
2023/06/20 06:24:13;;;;;;;17.50;13.80;;;;;;;22.45;77.14;100718.17;104452;1280;101381;-84
2023/06/20 06:26:58;;;;;;;15.30;12.90;;;;;;;22.55;77.04;100720.00;104358;1282;100424;-81
2023/06/20 06:29:44;;;;;;;14.40;13.00;;;;;;;22.69;76.97;100720.58;104368;1286;97973;-81
2023/06/20 06:32:34;;;;;;;15.50;13.80;;;;;;;22.84;76.66;100724.16;104404;1290;98022;-81
2023/06/20 06:35:20;;;;;;;13.80;12.50;;;;;;;22.97;75.99;100725.92;104319;1282;98561;-83
2023/06/20 06:38:06;;;;;;;14.10;12.40;;;;;;;23.11;75.25;100722.29;104364;1283;101360;-82
2023/06/20 06:40:54;;;;;;;14.00;12.40;;;;;;;23.17;74.35;100721.23;104251;1283;99145;-81
2023/06/20 06:43:40;;;;;;;16.50;12.50;;;;;;;23.18;73.74;100719.92;104076;1280;97944;-81
2023/06/20 06:46:25;;;;;;;16.70;12.60;;;;;;;23.20;74.10;100718.13;104348;1279;98827;-81
2023/06/20 06:49:10;;;;;;;13.20;11.80;;;;;;;23.24;74.13;100715.30;104446;1282;98496;-81
2023/06/20 06:51:56;;;;;;;12.70;11.40;;;;;;;23.33;74.54;100715.09;104443;1283;101406;-81
2023/06/20 06:54:41;;;;;;;13.10;11.70;;;;;;;23.47;73.85;100717.66;104443;1280;100251;-81
2023/06/20 06:57:27;;;;;;;16.90;12.50;;;;;;;23.59;72.68;100718.58;104505;1282;98487;-81
2023/06/20 07:00:14;;;;;;;13.30;11.50;;;;;;;23.67;72.30;100722.10;104407;1283;98069;-81
2023/06/20 07:03:00;;;;;;;12.60;11.30;;;;;;;23.74;71.03;100725.22;104095;1285;98033;-81
2023/06/20 07:05:45;;;;;;;14.80;11.00;;;;;;;23.85;71.00;100722.35;104428;1279;102201;-82
2023/06/20 07:08:30;;;;;;;13.30;11.80;;;;;;;23.95;70.88;100721.77;104466;1282;100232;-81
2023/06/20 07:11:17;;;;;;;13.10;11.50;;;;;;;24.04;70.08;100727.16;104359;1284;98902;-82
2023/06/20 07:14:02;;;;;;;11.70;10.60;;;;;;;24.11;69.94;100726.47;104199;1285;98005;-82
2023/06/20 07:16:48;;;;;;;11.80;10.70;;;;;;;24.19;68.67;100729.21;104435;1280;98465;-82
2023/06/20 07:19:34;;;;;;;12.50;11.40;;;;;;;24.25;67.54;100732.83;104525;1283;102675;-82
2023/06/20 07:22:20;;;;;;;12.40;11.30;;;;;;;24.30;68.01;100736.27;104540;1282;99246;-83
2023/06/20 07:25:07;;;;;;;13.50;12.10;;;;;;;24.41;68.46;100736.65;104457;1284;97899;-83
2023/06/20 07:27:53;;;;;;;14.30;11.60;;;;;;;24.54;67.64;100736.65;104555;1283;97971;-81
2023/06/20 07:30:39;;;;;;;13.00;11.80;;;;;;;24.66;66.72;100734.45;104310;1286;98687;-82
2023/06/20 07:33:24;;;;;;;13.70;12.00;;;;;;;24.76;66.22;100731.71;104447;1280;101367;-82
2023/06/20 07:36:09;;;;;;;12.90;11.80;;;;;;;24.85;66.41;100735.70;104283;1280;100415;-81
2023/06/20 07:38:54;;;;;;;12.30;11.10;;;;;;;24.96;65.87;100734.52;104278;1282;97922;-83
2023/06/20 07:41:40;;;;;;;12.90;11.70;;;;;;;25.04;64.71;100736.59;103940;1286;98089;-80
2023/06/20 07:44:25;;;;;;;12.30;10.70;;;;;;;25.10;64.28;100733.82;104168;1280;97912;-84
2023/06/20 07:47:13;;;;;;;11.30;10.30;;;;;;;25.17;63.79;100734.08;104070;1293;102240;-82
2023/06/20 07:49:59;;;;;;;11.30;9.40;;;;;;;25.24;62.02;100739.27;104161;1280;99187;-84
2023/06/20 07:52:44;;;;;;;10.60;9.50;;;;;;;25.30;61.36;100735.52;104252;1286;97963;-82
2023/06/20 07:55:29;;;;;;;10.30;9.40;;;;;;;25.37;61.21;100738.29;104377;1285;99296;-81
2023/06/20 07:58:15;;;;;;;10.40;9.40;;;;;;;25.42;60.50;100739.39;104615;1283;98100;-80
2023/06/20 08:01:00;;;;;;;10.30;9.40;;;;;;;25.49;59.77;100736.34;104754;1280;101371;-81
2023/06/20 08:03:46;;;;;;;12.50;9.30;;;;;;;25.56;60.01;100736.69;104787;1279;99121;-83
2023/06/20 08:06:32;;;;;;;11.40;10.10;;;;;;;25.65;60.34;100737.02;104655;1285;98852;-81
2023/06/20 08:09:18;;;;;;;12.60;10.10;;;;;;;25.75;60.34;100736.04;104555;1293;98023;-86
2023/06/20 08:12:04;;;;;;;9.50;8.70;;;;;;;25.84;59.22;100739.00;104249;1279;98010;-87
2023/06/20 08:14:53;;;;;;;9.50;8.30;;;;;;;25.90;59.29;100738.84;104266;1283;101395;-84
2023/06/20 08:17:38;;;;;;;9.10;8.30;;;;;;;26.01;58.46;100735.46;104699;1280;100383;-89
2023/06/20 08:20:24;;;;;;;10.50;8.40;;;;;;;26.12;57.64;100735.86;104687;1280;99051;-82
2023/06/20 08:23:09;;;;;;;9.40;8.40;;;;;;;26.16;57.78;100736.60;104568;1283;98130;-83
2023/06/20 08:25:56;;;;;;;9.80;8.90;;;;;;;26.24;57.95;100739.50;104097;1283;99570;-83
2023/06/20 08:28:42;;;;;;;8.90;8.10;;;;;;;26.28;56.58;100741.50;104333;1282;101415;-83
2023/06/20 08:31:36;;;;;;;8.90;8.00;;;;;;;26.27;55.57;100746.02;104218;1280;100370;-82
2023/06/20 08:34:22;;;;;;;10.30;9.20;;;;;;;26.32;56.24;100750.65;104129;1285;97982;-84
2023/06/20 08:37:08;;;;;;;10.20;9.20;;;;;;;26.40;56.24;100752.73;103954;1281;98069;-82
2023/06/20 08:39:54;;;;;;;10.30;8.80;;;;;;;26.50;56.67;100753.96;104139;1286;97944;-82
2023/06/20 08:42:40;;;;;;;9.70;8.80;;;;;;;26.60;55.31;100754.58;104237;1280;101364;-83
2023/06/20 08:45:27;;;;;;;9.50;8.70;;;;;;;26.58;54.21;100757.52;103966;1282;99128;-84
2023/06/20 08:48:12;;;;;;;7.80;7.20;;;;;;;26.54;54.57;100757.61;103981;1294;98116;-83
2023/06/20 08:50:58;;;;;;;8.20;6.80;;;;;;;26.52;54.59;100757.35;104077;1286;98093;-83
2023/06/20 08:53:47;;;;;;;7.40;6.60;;;;;;;26.50;54.14;100755.73;104243;1280;99690;-83
2023/06/20 08:56:32;;;;;;;9.10;7.70;;;;;;;26.47;53.98;100755.75;104061;1285;102636;-84
2023/06/20 08:59:24;;;;;;;8.20;7.20;;;;;;;26.47;54.34;100758.72;104297;1280;99141;-83
2023/06/20 09:02:11;;;;;;;7.10;6.40;;;;;;;26.51;54.38;100754.06;104227;1280;98339;-85
2023/06/20 09:05:02;;;;;;;8.60;7.40;;;;;;;26.58;53.46;100753.28;104135;1280;97998;-82
2023/06/20 09:07:47;;;;;;;8.60;7.70;;;;;;;26.66;53.13;100756.29;103998;1282;98120;-84
2023/06/20 09:10:33;;;;;;;8.00;7.30;;;;;;;26.68;52.86;100756.98;104017;1285;102776;-84
2023/06/20 09:13:32;;;;;;;7.80;7.20;;;;;;;26.78;53.97;100756.70;104173;1286;99704;-84
2023/06/20 09:16:18;;;;;;;7.90;7.30;;;;;;;26.91;53.37;100752.23;104124;1286;98982;-84
2023/06/20 09:19:04;;;;;;;8.70;6.80;;;;;;;27.01;52.60;100752.61;104166;1280;98097;-84
2023/06/20 09:21:50;;;;;;;7.40;6.80;;;;;;;27.11;52.38;100751.30;104133;1282;98502;-83
2023/06/20 09:24:43;;;;;;;8.00;6.80;;;;;;;27.19;52.02;100749.65;104205;1283;101365;-83
2023/06/20 09:27:33;;;;;;;8.80;6.30;;;;;;;27.27;52.07;100751.50;103916;1279;99230;-84
2023/06/20 09:30:19;;;;;;;7.40;6.60;;;;;;;27.37;52.00;100753.42;103963;1286;99301;-83
2023/06/20 09:33:05;;;;;;;7.70;6.90;;;;;;;27.49;51.90;100750.09;103962;1283;98026;-84
2023/06/20 09:35:50;;;;;;;6.90;6.20;;;;;;;27.62;52.46;100748.05;104041;1286;98443;-84
2023/06/20 09:38:41;;;;;;;6.40;5.80;;;;;;;27.73;51.33;100749.50;104064;1285;101436;-83
2023/06/20 09:41:27;;;;;;;;;;;;;;;27.79;50.28;100749.80;104205;1283;100271;-85
2023/06/20 09:44:13;;;;;;;6.10;5.60;;;;;;;27.81;49.83;100751.64;103878;1280;98030;-84
2023/06/20 09:46:59;;;;;;;6.60;5.90;;;;;;;27.86;49.25;100748.27;104186;1280;97925;-83
2023/06/20 09:49:45;;;;;;;6.00;5.10;;;;;;;27.92;48.27;100750.55;104111;1280;98010;-83
2023/06/20 09:52:45;;;;;;;5.70;5.10;;;;;;;27.96;47.60;100753.14;104018;1283;102037;-84
2023/06/20 09:55:36;;;;;;;4.50;4.10;;;;;;;27.99;46.67;100752.67;104082;1285;99130;-84
2023/06/20 09:58:25;;;;;;;4.40;4.00;;;;;;;28.00;45.45;100749.08;103958;1284;99071;-83
2023/06/20 10:01:14;;;;;;;4.10;3.70;;;;;;;28.06;45.22;100753.21;103914;1283;98494;-84
2023/06/20 10:04:01;;;;;;;3.90;3.60;;;;;;;28.14;44.48;100749.08;103931;1279;97992;-85
2023/06/20 10:06:47;;;;;;;4.80;4.30;;;;;;;28.17;43.42;100746.11;104186;1286;101368;-83
2023/06/20 10:09:33;;;;;;;4.80;4.30;;;;;;;28.18;42.87;100742.56;103875;1280;100402;-83
2023/06/20 10:12:20;;;;;;;5.00;4.20;;;;;;;28.22;43.21;100738.98;104230;1283;99138;-78
2023/06/20 10:15:07;;;;;;;4.70;4.30;;;;;;;28.31;42.77;100737.20;104399;1282;98026;-79
2023/06/20 10:17:53;;;;;;;4.50;3.90;;;;;;;28.37;41.60;100735.83;104514;1279;97934;-84
2023/06/20 10:20:38;;;;;;;7.60;4.50;;;;;;;28.44;41.47;100736.80;104357;1286;101393;-81
2023/06/20 10:23:33;;;;;;;5.30;4.90;;;;;;;28.51;41.23;100736.79;104592;1279;99141;-80
2023/06/20 10:26:21;;;;;;;5.20;4.70;;;;;;;28.50;41.56;100736.20;104271;1280;98039;-82
2023/06/20 10:29:06;;;;;;;4.90;4.50;;;;;;;28.50;41.68;100730.80;104343;1282;96426;-82
2023/06/20 10:32:02;;;;;;;8.10;4.70;;;;;;;28.52;42.58;100727.95;104540;1280;98543;-81
2023/06/20 10:34:50;;;;;;;5.10;4.30;;;;;;;28.58;41.99;100729.41;104353;1280;101409;-81
2023/06/20 10:37:40;;;;;;;5.10;4.20;;;;;;;28.62;41.04;100734.25;103923;1283;100134;-81
2023/06/20 10:40:29;;;;;;;6.00;4.20;;;;;;;28.66;40.52;100732.79;103863;1285;98028;-79
2023/06/20 10:43:17;;;;;;;4.20;3.90;;;;;;;28.68;40.45;100733.58;104782;1282;98018;-80
2023/06/20 10:46:02;;;;;;;5.40;4.60;;;;;;;28.70;39.86;100730.50;103756;1283;98695;-79
2023/06/20 10:48:48;;;;;;;4.60;4.20;;;;;;;28.71;40.22;100730.07;103722;1280;101419;-79
2023/06/20 10:51:47;;;;;;;4.60;4.00;;;;;;;28.76;40.02;100731.95;103779;1282;107758;-79
2023/06/20 10:54:35;;;;;;;3.50;3.20;;;;;;;28.85;40.67;100733.66;103889;1293;98002;-79
2023/06/20 10:57:22;;;;;;;5.70;4.30;;;;;;;28.91;39.56;100734.87;103899;1280;98909;-80
2023/06/20 11:00:14;;;;;;;4.90;4.40;;;;;;;28.90;39.26;100731.65;103927;1279;98491;-81
2023/06/20 11:02:59;;;;;;;3.60;3.30;;;;;;;28.88;38.77;100728.58;103914;1279;101367;-80
2023/06/20 11:05:53;;;;;;;7.40;4.50;;;;;;;28.89;39.00;100721.61;104014;1280;99107;-80
2023/06/20 11:08:43;;;;;;;4.90;4.50;;;;;;;28.93;40.12;100723.91;103941;1280;98070;-80
2023/06/20 11:11:37;;;;;;;4.70;4.30;;;;;;;29.07;40.93;100721.60;103927;1280;98785;-80
2023/06/20 11:14:24;;;;;;;5.80;4.20;;;;;;;29.22;41.10;100718.34;104329;1280;98888;-80
2023/06/20 11:17:09;;;;;;;7.50;4.70;;;;;;;29.31;40.01;100717.31;104335;1280;101385;-80
2023/06/20 11:19:54;;;;;;;5.10;4.70;;;;;;;29.36;39.44;100713.56;103919;1283;99279;-80
2023/06/20 11:22:41;;;;;;;4.90;4.50;;;;;;;29.43;39.37;100712.82;104081;1279;98007;-79
2023/06/20 11:25:32;;;;;;;6.70;4.60;;;;;;;29.57;39.01;100708.25;104365;1280;98025;-80
2023/06/20 11:28:17;;;;;;;6.60;4.60;;;;;;;29.69;39.03;100708.03;103891;1280;98022;-81
2023/06/20 11:31:10;;;;;;;4.70;4.30;;;;;;;29.81;38.86;100703.77;104034;1280;102739;-81
2023/06/20 11:34:06;;;;;;;4.20;3.90;;;;;;;29.84;38.08;100699.88;104508;1280;99194;-80
2023/06/20 11:36:54;;;;;;;3.60;3.30;;;;;;;29.85;36.62;100699.23;105152;1280;97836;-91
2023/06/20 11:39:42;;;;;;;4.50;3.70;;;;;;;29.84;36.29;100696.67;104870;1280;97998;-89
2023/06/20 11:42:35;;;;;;;4.70;3.30;;;;;;;29.85;36.43;100690.06;104774;1285;98116;-80
2023/06/20 11:45:26;;;;;;;5.60;4.40;;;;;;;29.92;36.86;100689.19;105098;1279;102671;-81
2023/06/20 11:48:14;;;;;;;5.40;4.30;;;;;;;29.97;36.25;100688.02;105169;1280;100525;-81
2023/06/20 11:51:04;;;;;;;5.10;4.70;;;;;;;29.97;35.63;100688.79;105807;1283;101305;-81
2023/06/20 11:54:04;;;;;;;4.50;4.20;;;;;;;29.99;36.28;100683.16;105029;1280;97924;-79
2023/06/20 11:56:54;;;;;;;;;;;;;;;30.04;36.00;100680.00;104839;1279;96539;-79
2023/06/20 11:59:40;;;;;;;6.00;4.50;;;;;;;30.06;36.55;100683.60;104437;1279;101479;-79
2023/06/20 12:02:26;;;;;;;5.40;4.90;;;;;;;30.10;35.94;100681.39;104387;1279;99280;-80
2023/06/20 12:05:15;;;;;;;4.80;4.40;;;;;;;30.13;36.40;100678.39;104607;1280;97949;-80
2023/06/20 12:08:00;;;;;;;5.50;4.70;;;;;;;30.18;36.25;100679.20;104389;1279;98155;-79
2023/06/20 12:11:03;;;;;;;5.00;4.50;;;;;;;30.25;36.30;100680.90;104197;1280;97905;-80
2023/06/20 12:13:49;;;;;;;5.40;4.90;;;;;;;30.30;35.80;100682.39;104258;1282;101273;-79
2023/06/20 12:16:35;;;;;;;5.50;4.90;;;;;;;30.35;35.55;100677.97;104349;1279;100425;-80
2023/06/20 12:19:21;;;;;;;6.00;5.00;;;;;;;30.40;35.68;100673.13;105076;1282;99044;-80
2023/06/20 12:22:07;;;;;;;5.60;4.80;;;;;;;30.47;36.04;100673.16;104758;1280;97998;-79
2023/06/20 12:24:52;;;;;;;6.10;4.70;;;;;;;30.49;35.06;100669.08;104347;1286;98458;-80
2023/06/20 12:27:37;;;;;;;6.10;4.90;;;;;;;30.48;35.16;100666.73;104270;1280;101546;-78
2023/06/20 12:30:26;;;;;;;5.30;4.60;;;;;;;30.58;35.28;100668.97;104362;1283;100012;-80
2023/06/20 12:33:12;;;;;;;4.80;4.40;;;;;;;30.70;36.18;100666.73;104465;1279;99022;-79
2023/06/20 12:35:58;;;;;;;5.10;4.70;;;;;;;30.84;36.69;100667.14;105047;1280;97997;-80
2023/06/20 12:38:44;;;;;;;6.60;4.30;;;;;;;30.97;36.22;100667.05;105024;1280;98026;-80
2023/06/20 12:41:36;;;;;;;6.10;5.00;;;;;;;31.07;35.40;100666.42;105159;1279;101409;-80
2023/06/20 12:44:21;;;;;;;5.60;5.10;;;;;;;31.10;35.23;100660.96;105122;1280;99130;-80